createdAt,value
2022-12-06T00:00:11.746Z,6.47
2022-12-06T00:02:40.908Z,5.60
2022-12-06T00:05:09.268Z,14.20
2022-12-06T00:07:37.054Z,4.80
2022-12-06T00:10:05.671Z,5.47
2022-12-06T00:12:33.449Z,6.27
2022-12-06T00:15:01.194Z,8.87
2022-12-06T00:17:28.943Z,6.93
2022-12-06T00:19:58.375Z,6.97
2022-12-06T00:22:26.387Z,6.60
2022-12-06T00:24:54.161Z,5.17
2022-12-06T00:27:21.923Z,7.93
2022-12-06T00:29:49.691Z,7.37
2022-12-06T00:32:19.616Z,5.90
2022-12-06T00:34:47.758Z,7.90
2022-12-06T00:37:16.843Z,6.80
2022-12-06T00:39:44.609Z,6.70
2022-12-06T00:42:12.466Z,6.13
2022-12-06T00:44:40.289Z,7.97
2022-12-06T00:47:08.067Z,5.83
2022-12-06T00:49:35.862Z,6.00
2022-12-06T00:52:03.723Z,7.50
2022-12-06T00:54:32.879Z,8.37
2022-12-06T00:57:00.774Z,7.40
2022-12-06T00:59:28.611Z,6.50
2022-12-06T01:01:56.651Z,9.00
2022-12-06T01:04:24.410Z,7.60
2022-12-06T01:06:52.227Z,7.60
2022-12-06T01:09:20.132Z,10.07
2022-12-06T01:11:49.453Z,5.93
2022-12-06T01:14:17.227Z,6.97
2022-12-06T01:16:45.046Z,6.33
2022-12-06T01:19:13.924Z,7.77
2022-12-06T01:21:41.797Z,5.43
2022-12-06T01:24:09.654Z,7.80
2022-12-06T01:26:37.401Z,7.77
2022-12-06T01:29:06.622Z,6.03
2022-12-06T01:31:38.746Z,8.97
2022-12-06T01:34:08.081Z,7.73
2022-12-06T01:36:35.941Z,6.90
2022-12-06T01:39:06.611Z,7.80
2022-12-06T01:41:34.976Z,6.83
2022-12-06T01:44:02.980Z,7.13
2022-12-06T01:46:37.267Z,7.17
2022-12-06T01:49:15.045Z,6.73
2022-12-06T01:51:45.263Z,5.80
2022-12-06T01:54:15.776Z,6.80
2022-12-06T01:56:43.923Z,7.57
2022-12-06T01:59:12.476Z,7.57
2022-12-06T02:01:42.208Z,7.60
2022-12-06T02:04:10.756Z,6.40
2022-12-06T02:06:39.899Z,7.97
2022-12-06T02:09:09.752Z,6.40
2022-12-06T02:11:38.118Z,6.63
2022-12-06T02:14:10.636Z,8.07
2022-12-06T02:16:53.767Z,6.43
2022-12-06T02:19:58.407Z,7.13
2022-12-06T02:22:34.633Z,9.33
2022-12-06T02:25:23.205Z,7.07
2022-12-06T02:28:20.249Z,8.67
2022-12-06T02:30:58.473Z,7.17
2022-12-06T02:33:31.982Z,7.10
2022-12-06T02:36:05.759Z,8.87
2022-12-06T02:38:40.418Z,7.60
2022-12-06T02:41:13.116Z,7.10
2022-12-06T02:43:44.561Z,6.73
2022-12-06T02:46:20.074Z,6.93
2022-12-06T02:48:49.653Z,7.37
2022-12-06T02:51:18.878Z,7.53
2022-12-06T02:53:50.633Z,6.10
2022-12-06T02:56:19.385Z,7.60
2022-12-06T02:58:48.044Z,8.83
2022-12-06T03:01:20.797Z,7.13
2022-12-06T03:04:04.121Z,6.53
2022-12-06T03:07:01.533Z,8.23
2022-12-06T03:09:46.413Z,9.13
2022-12-06T03:12:20.572Z,8.40
2022-12-06T03:14:57.300Z,8.37
2022-12-06T03:17:38.632Z,8.10
2022-12-06T03:20:12.015Z,8.00
2022-12-06T03:22:44.898Z,9.27
2022-12-06T03:25:14.857Z,7.27
2022-12-06T03:27:44.731Z,7.53
2022-12-06T03:30:15.685Z,9.83
2022-12-06T03:32:47.231Z,8.43
2022-12-06T03:35:18.873Z,7.07
2022-12-06T03:37:51.324Z,10.13
2022-12-06T03:40:23.200Z,8.30
2022-12-06T03:42:54.227Z,9.47
2022-12-06T03:45:24.039Z,8.53
2022-12-06T03:47:59.850Z,8.20
2022-12-06T03:50:33.222Z,12.53
2022-12-06T03:53:02.154Z,7.63
2022-12-06T03:55:30.047Z,8.57
2022-12-06T03:57:58.159Z,7.40
2022-12-06T04:00:26.008Z,8.60
2022-12-06T04:02:55.155Z,8.17
2022-12-06T04:05:23.051Z,9.17
2022-12-06T04:07:50.877Z,8.53
2022-12-06T04:10:18.807Z,6.90
2022-12-06T04:13:01.945Z,9.40
2022-12-06T04:15:31.647Z,10.17
2022-12-06T04:18:13.835Z,8.47
2022-12-06T04:21:01.428Z,9.77
2022-12-06T04:23:29.775Z,11.90
2022-12-06T04:25:57.711Z,12.20
2022-12-06T04:28:43.459Z,8.00
2022-12-06T04:31:28.926Z,8.80
2022-12-06T04:34:16.015Z,9.43
2022-12-06T04:37:01.444Z,8.63
2022-12-06T04:39:29.217Z,9.43
2022-12-06T04:42:15.287Z,7.97
2022-12-06T04:44:43.235Z,7.80
2022-12-06T04:47:11.323Z,8.83
2022-12-06T04:49:40.578Z,8.63
2022-12-06T04:52:09.670Z,8.30
2022-12-06T04:54:38.154Z,8.70
2022-12-06T04:57:10.779Z,11.63
2022-12-06T04:59:40.074Z,8.07
2022-12-06T05:02:09.931Z,9.00
2022-12-06T05:04:37.718Z,7.20
2022-12-06T05:07:06.960Z,10.17
2022-12-06T05:09:34.859Z,9.37
2022-12-06T05:12:02.675Z,9.33
2022-12-06T05:14:30.731Z,7.90
2022-12-06T05:16:58.814Z,11.20
2022-12-06T05:19:27.577Z,14.23
2022-12-06T05:21:56.906Z,11.70
2022-12-06T05:24:26.080Z,10.03
2022-12-06T05:26:53.835Z,8.70
2022-12-06T05:29:21.673Z,10.77
2022-12-06T05:31:49.531Z,11.60
2022-12-06T05:34:17.369Z,8.43
2022-12-06T05:36:45.894Z,8.23
2022-12-06T05:39:13.690Z,9.50
2022-12-06T05:41:42.799Z,10.30
2022-12-06T05:44:12.494Z,10.87
2022-12-06T05:46:40.314Z,9.10
2022-12-06T05:49:08.144Z,12.17
2022-12-06T05:51:35.903Z,11.50
2022-12-06T05:54:06.437Z,9.60
2022-12-06T05:56:34.806Z,10.70
2022-12-06T05:59:04.239Z,24.03
2022-12-06T06:01:32.106Z,25.40
2022-12-06T06:03:59.979Z,24.43
2022-12-06T06:06:28.336Z,12.20
2022-12-06T06:08:56.150Z,10.17
2022-12-06T06:11:24.003Z,11.00
2022-12-06T06:13:51.883Z,10.80
2022-12-06T06:16:21.089Z,11.70
2022-12-06T06:18:48.974Z,14.33
2022-12-06T06:21:16.750Z,12.07
2022-12-06T06:23:44.560Z,11.80
2022-12-06T06:26:13.443Z,28.97
2022-12-06T06:28:41.261Z,12.97
2022-12-06T06:31:09.533Z,14.10
2022-12-06T06:33:38.900Z,14.63
2022-12-06T06:36:07.476Z,13.37
2022-12-06T06:38:35.376Z,14.93
2022-12-06T06:41:04.270Z,14.27
2022-12-06T06:43:32.468Z,11.47
2022-12-06T06:46:02.320Z,11.10
2022-12-06T06:48:32.130Z,13.23
2022-12-06T06:51:08.795Z,13.23
2022-12-06T06:53:37.266Z,14.63
2022-12-06T06:56:05.608Z,14.07
2022-12-06T06:58:33.577Z,14.53
2022-12-06T07:01:06.498Z,14.57
2022-12-06T07:03:35.363Z,10.97
2022-12-06T07:06:08.100Z,12.10
2022-12-06T07:08:36.072Z,12.80
2022-12-06T07:11:04.456Z,12.57
2022-12-06T07:13:33.592Z,12.93
2022-12-06T07:16:04.482Z,16.40
2022-12-06T07:18:32.518Z,14.27
2022-12-06T07:21:03.654Z,12.57
2022-12-06T07:23:34.188Z,13.27
2022-12-06T07:26:03.474Z,15.57
2022-12-06T07:28:31.385Z,14.53
2022-12-06T07:30:59.348Z,14.97
2022-12-06T07:33:27.161Z,13.63
2022-12-06T07:36:12.402Z,14.30
2022-12-06T07:38:43.120Z,14.53
2022-12-06T07:41:26.689Z,14.60
2022-12-06T07:44:13.791Z,15.57
2022-12-06T07:46:41.958Z,17.13
2022-12-06T07:49:09.964Z,13.60
2022-12-06T07:51:39.973Z,17.90
2022-12-06T07:54:09.511Z,19.17
2022-12-06T07:56:37.301Z,15.20
2022-12-06T07:59:05.321Z,16.30
2022-12-06T08:01:33.197Z,19.03
2022-12-06T08:04:01.850Z,19.23
2022-12-06T08:06:31.323Z,17.17
2022-12-06T08:08:59.079Z,16.03
2022-12-06T08:11:28.875Z,20.00
2022-12-06T08:13:56.971Z,18.43
2022-12-06T08:16:24.926Z,18.90
2022-12-06T08:18:53.284Z,17.17
2022-12-06T08:21:21.142Z,15.57
2022-12-06T08:23:49.002Z,18.40
2022-12-06T08:26:18.617Z,16.43
2022-12-06T08:28:48.072Z,17.33
2022-12-06T08:31:18.922Z,15.70
2022-12-06T08:33:47.024Z,18.50
2022-12-06T08:36:18.399Z,15.43
2022-12-06T08:38:46.853Z,18.90
2022-12-06T08:41:29.098Z,17.73
2022-12-06T08:43:59.868Z,13.23
2022-12-06T08:46:28.368Z,16.83
2022-12-06T08:48:56.412Z,18.17
2022-12-06T08:51:24.291Z,16.30
2022-12-06T08:53:55.150Z,14.17
2022-12-06T08:56:23.229Z,19.60
2022-12-06T08:58:53.357Z,16.70
2022-12-06T09:01:24.289Z,16.67
2022-12-06T09:03:52.631Z,16.23
2022-12-06T09:06:21.828Z,13.67
2022-12-06T09:08:49.828Z,12.70
2022-12-06T09:11:18.601Z,16.07
2022-12-06T09:13:46.752Z,16.23
2022-12-06T09:16:17.539Z,16.67
2022-12-06T09:18:47.742Z,15.37
2022-12-06T09:21:18.007Z,16.37
2022-12-06T09:23:46.282Z,12.60
2022-12-06T09:26:14.476Z,14.17
2022-12-06T09:28:44.451Z,14.67
2022-12-06T09:31:12.483Z,14.83
2022-12-06T09:33:40.239Z,13.27
2022-12-06T09:36:15.707Z,12.73
2022-12-06T09:38:45.132Z,11.90
2022-12-06T09:41:26.487Z,14.53
2022-12-06T09:44:06.443Z,13.13
2022-12-06T09:46:49.248Z,14.30
2022-12-06T09:49:30.246Z,13.70
2022-12-06T09:52:11.424Z,11.80
2022-12-06T09:55:00.221Z,14.13
2022-12-06T09:57:34.457Z,10.50
2022-12-06T10:00:11.463Z,12.93
2022-12-06T10:02:58.821Z,10.23
2022-12-06T10:05:54.057Z,12.80
2022-12-06T10:08:35.774Z,12.00
2022-12-06T10:11:14.597Z,12.13
2022-12-06T10:13:55.403Z,12.43
2022-12-06T10:16:36.154Z,11.70
2022-12-06T10:19:13.175Z,11.90
2022-12-06T10:21:51.635Z,11.83
2022-12-06T10:24:34.388Z,12.17
2022-12-06T10:27:08.470Z,8.80
2022-12-06T10:29:47.755Z,10.57
2022-12-06T10:32:19.673Z,8.40
2022-12-06T10:34:55.588Z,12.40
2022-12-06T10:37:38.795Z,9.70
2022-12-06T10:40:15.613Z,10.30
2022-12-06T10:42:49.910Z,8.47
2022-12-06T10:45:44.072Z,11.23
2022-12-06T10:48:20.435Z,10.87
2022-12-06T10:50:55.018Z,12.27
2022-12-06T10:53:24.520Z,8.20
2022-12-06T10:55:58.560Z,8.63
2022-12-06T10:58:34.318Z,11.13
2022-12-06T11:01:05.964Z,8.00
2022-12-06T11:03:38.983Z,8.00
2022-12-06T11:06:11.422Z,8.47
2022-12-06T11:08:43.223Z,8.03
2022-12-06T11:11:16.566Z,8.03
2022-12-06T11:13:48.562Z,8.70
2022-12-06T11:16:20.752Z,14.30
2022-12-06T11:18:50.266Z,11.23
2022-12-06T11:21:30.327Z,9.97
2022-12-06T11:24:04.425Z,6.60
2022-12-06T11:26:43.727Z,8.03
2022-12-06T11:29:13.901Z,8.80
2022-12-06T11:31:45.376Z,8.93
2022-12-06T11:34:17.178Z,10.33
2022-12-06T11:36:47.364Z,9.47
2022-12-06T11:39:16.267Z,8.23
2022-12-06T11:41:47.840Z,8.43
2022-12-06T11:44:20.203Z,8.30
2022-12-06T11:46:49.481Z,8.57
2022-12-06T11:49:27.111Z,7.50
2022-12-06T11:51:56.655Z,7.67
2022-12-06T11:54:30.672Z,6.83
2022-12-06T11:57:04.148Z,6.80
2022-12-06T11:59:32.583Z,6.10
2022-12-06T12:02:02.675Z,9.00
2022-12-06T12:04:35.609Z,8.80
2022-12-06T12:07:10.860Z,11.60
2022-12-06T12:09:49.319Z,10.23
2022-12-06T12:12:21.215Z,9.97
2022-12-06T12:14:55.722Z,13.23
2022-12-06T12:17:26.264Z,9.07
2022-12-06T12:19:59.579Z,8.40
2022-12-06T12:22:34.117Z,9.53
2022-12-06T12:25:18.576Z,9.40
2022-12-06T12:27:50.261Z,8.07
2022-12-06T12:30:27.092Z,8.40
2022-12-06T12:33:28.173Z,10.13
2022-12-06T12:36:10.603Z,22.40
2022-12-06T12:38:42.059Z,13.20
2022-12-06T12:41:27.154Z,11.20
2022-12-06T12:44:35.809Z,8.90
2022-12-06T12:46:53.992Z,8.97
2022-12-06T12:49:31.381Z,6.80
2022-12-06T12:52:00.652Z,8.20
2022-12-06T12:54:32.073Z,9.23
2022-12-06T12:57:02.014Z,7.47
2022-12-06T12:59:39.419Z,8.00
2022-12-06T13:02:18.703Z,6.23
2022-12-06T13:04:59.831Z,13.50
2022-12-06T13:07:41.301Z,9.67
2022-12-06T13:10:19.248Z,9.47
2022-12-06T13:12:51.098Z,11.60
2022-12-06T13:15:23.201Z,8.10
2022-12-06T13:17:59.549Z,7.23
2022-12-06T13:20:30.226Z,6.30
2022-12-06T13:23:02.651Z,8.00
2022-12-06T13:25:30.465Z,6.77
2022-12-06T13:28:05.385Z,6.03
2022-12-06T13:30:37.817Z,8.30
2022-12-06T13:33:19.209Z,7.30
2022-12-06T13:35:55.276Z,6.57
2022-12-06T13:38:27.176Z,7.10
2022-12-06T13:40:55.683Z,6.50
2022-12-06T13:44:00.523Z,7.50
2022-12-06T13:46:33.995Z,9.00
2022-12-06T13:49:24.099Z,6.23
2022-12-06T13:51:52.549Z,10.23
2022-12-06T13:54:32.787Z,10.87
2022-12-06T13:57:03.625Z,7.57
2022-12-06T13:59:38.741Z,7.30
2022-12-06T14:02:51.288Z,7.57
2022-12-06T14:08:28.224Z,5.67
2022-12-06T14:11:07.083Z,5.43
2022-12-06T14:13:35.087Z,7.23
2022-12-06T14:16:02.992Z,7.23
2022-12-06T14:18:30.863Z,6.77
2022-12-06T14:20:59.128Z,5.53
2022-12-06T14:23:31.732Z,6.77
2022-12-06T14:26:16.684Z,7.13
2022-12-06T14:28:45.688Z,8.00
2022-12-06T14:31:22.577Z,7.17
2022-12-06T14:33:50.871Z,10.30
2022-12-06T14:36:22.929Z,7.70
2022-12-06T14:39:17.105Z,8.90
2022-12-06T14:42:11.325Z,5.53
2022-12-06T14:44:39.886Z,8.80
2022-12-06T14:47:08.422Z,7.43
2022-12-06T14:49:54.442Z,8.97
2022-12-06T14:52:25.603Z,7.90
2022-12-06T14:55:15.981Z,8.37
2022-12-06T14:57:47.288Z,6.97
2022-12-06T15:00:26.472Z,6.17
2022-12-06T15:03:06.639Z,7.10
2022-12-06T15:05:37.146Z,7.40
2022-12-06T15:08:30.198Z,8.43
2022-12-06T15:11:01.254Z,5.03
2022-12-06T15:13:28.736Z,6.97
2022-12-06T15:16:14.945Z,9.07
2022-12-06T15:18:45.737Z,5.80
2022-12-06T15:21:14.506Z,8.47
2022-12-06T15:23:49.019Z,7.93
2022-12-06T15:26:19.744Z,5.40
2022-12-06T15:28:48.741Z,5.47
2022-12-06T15:31:20.816Z,4.93
2022-12-06T15:33:49.590Z,6.43
2022-12-06T15:36:19.292Z,9.20
2022-12-06T15:38:48.373Z,4.80
2022-12-06T15:41:20.078Z,4.70
2022-12-06T15:43:48.740Z,5.57
2022-12-06T15:46:21.514Z,5.43
2022-12-06T15:48:49.539Z,7.90
2022-12-06T15:51:20.807Z,4.73
2022-12-06T15:53:50.452Z,7.17
2022-12-06T15:56:22.396Z,7.13
2022-12-06T15:58:50.936Z,6.07
2022-12-06T16:01:20.623Z,9.23
2022-12-06T16:03:49.159Z,8.57
2022-12-06T16:06:19.113Z,5.87
2022-12-06T16:08:47.553Z,17.90
2022-12-06T16:11:17.308Z,8.77
2022-12-06T16:13:46.600Z,7.10
2022-12-06T16:16:16.414Z,6.80
2022-12-06T16:18:44.337Z,6.63
2022-12-06T16:21:20.817Z,5.73
2022-12-06T16:24:12.979Z,6.50
2022-12-06T16:26:44.755Z,6.60
2022-12-06T16:29:16.788Z,9.17
2022-12-06T16:31:45.230Z,6.53
2022-12-06T16:34:13.677Z,13.90
2022-12-06T16:37:00.211Z,8.27
2022-12-06T16:39:29.712Z,7.70
2022-12-06T16:41:57.756Z,8.50
2022-12-06T16:44:27.388Z,10.00
2022-12-06T16:46:55.336Z,6.73
2022-12-06T16:52:12.460Z,7.73
2022-12-06T16:54:43.200Z,9.57
2022-12-06T16:57:11.820Z,9.83
2022-12-06T16:59:41.910Z,7.80
2022-12-06T17:02:26.284Z,7.43
2022-12-06T17:04:54.246Z,8.27
2022-12-06T17:07:22.593Z,12.07
2022-12-06T17:09:50.426Z,11.10
2022-12-06T17:12:18.854Z,13.97
2022-12-06T17:14:48.168Z,11.30
2022-12-06T17:17:18.346Z,11.80
2022-12-06T17:19:46.449Z,8.00
2022-12-06T17:22:16.578Z,10.48
2022-12-06T17:24:44.841Z,15.90
2022-12-06T17:27:14.964Z,9.87
2022-12-06T17:29:43.745Z,9.23
2022-12-06T17:32:13.596Z,9.13
2022-12-06T17:34:41.350Z,9.57
2022-12-06T17:37:09.194Z,10.40
2022-12-06T17:39:39.241Z,9.63
2022-12-06T17:42:24.996Z,9.10
2022-12-06T17:44:53.123Z,13.13
2022-12-06T17:47:22.616Z,10.20
2022-12-06T17:49:50.540Z,7.63
2022-12-06T17:52:18.363Z,9.60
2022-12-06T17:54:46.228Z,8.40
2022-12-06T17:57:17.493Z,10.00
2022-12-06T17:59:46.372Z,8.17
2022-12-06T18:02:17.720Z,9.03
2022-12-06T18:04:48.132Z,9.67
2022-12-06T18:07:18.135Z,8.83
2022-12-06T18:09:46.817Z,10.63
2022-12-06T18:12:16.881Z,8.10
2022-12-06T18:14:45.399Z,10.20
2022-12-06T18:17:13.648Z,8.00
2022-12-06T18:19:41.721Z,10.47
2022-12-06T18:22:10.925Z,10.47
2022-12-06T18:24:38.715Z,8.37
2022-12-06T18:27:07.570Z,9.97
2022-12-06T18:29:35.746Z,9.07
2022-12-06T18:32:04.635Z,10.27
2022-12-06T18:34:32.610Z,11.27
2022-12-06T18:37:00.508Z,10.63
2022-12-06T18:39:29.657Z,9.87
2022-12-06T18:42:00.923Z,12.33
2022-12-06T18:44:28.804Z,12.90
2022-12-06T18:46:56.625Z,9.17
2022-12-06T18:49:24.409Z,9.30
2022-12-06T18:51:52.202Z,9.03
2022-12-06T18:54:20.371Z,12.40
2022-12-06T18:56:49.607Z,9.27
2022-12-06T18:59:17.387Z,9.53
2022-12-06T19:01:45.443Z,10.83
2022-12-06T19:04:16.467Z,9.50
2022-12-06T19:06:44.781Z,12.17
2022-12-06T19:09:15.308Z,7.90
2022-12-06T19:11:45.728Z,10.03
2022-12-06T19:14:16.024Z,16.60
2022-12-06T19:16:46.391Z,11.30
2022-12-06T19:19:17.040Z,10.63
2022-12-06T19:21:45.803Z,10.10
2022-12-06T19:24:15.881Z,11.03
2022-12-06T19:26:44.879Z,10.20
2022-12-06T19:29:14.398Z,9.80
2022-12-06T19:31:42.554Z,9.40
2022-12-06T19:34:15.767Z,10.80
2022-12-06T19:36:44.667Z,11.73
2022-12-06T19:39:13.725Z,9.80
2022-12-06T19:41:56.143Z,10.37
2022-12-06T19:44:25.294Z,11.00
2022-12-06T19:46:53.240Z,11.93
2022-12-06T19:49:22.997Z,10.13
2022-12-06T19:51:51.538Z,9.63
2022-12-06T19:54:20.828Z,9.00
2022-12-06T19:56:49.360Z,11.17
2022-12-06T19:59:17.110Z,11.63
2022-12-06T20:01:47.779Z,9.40
2022-12-06T20:04:17.551Z,11.63
2022-12-06T20:06:45.645Z,14.50
2022-12-06T20:09:14.073Z,12.73
2022-12-06T20:12:00.851Z,16.70
2022-12-06T20:14:30.335Z,10.57
2022-12-06T20:16:59.624Z,14.20
2022-12-06T20:19:27.771Z,14.03
2022-12-06T20:21:55.775Z,10.40
2022-12-06T20:24:24.004Z,13.13
2022-12-06T20:26:54.186Z,16.30
2022-12-06T20:29:22.778Z,12.73
2022-12-06T20:31:51.463Z,14.63
2022-12-06T20:34:20.740Z,11.27
2022-12-06T20:36:48.742Z,14.67
2022-12-06T20:39:21.419Z,14.00
2022-12-06T20:41:49.808Z,14.80
2022-12-06T20:44:18.440Z,13.00
2022-12-06T20:46:47.007Z,14.30
2022-12-06T20:49:16.120Z,22.93
2022-12-06T20:51:51.044Z,11.63
2022-12-06T20:54:20.433Z,13.07
2022-12-06T20:56:51.323Z,14.73
2022-12-06T20:59:19.309Z,14.90
2022-12-06T21:01:47.501Z,15.10
2022-12-06T21:04:16.489Z,16.80
2022-12-06T21:06:45.751Z,15.53
2022-12-06T21:09:13.642Z,15.47
2022-12-06T21:11:41.575Z,19.10
2022-12-06T21:14:12.190Z,14.70
2022-12-06T21:16:41.695Z,13.73
2022-12-06T21:19:12.688Z,13.07
2022-12-06T21:21:42.819Z,12.77
2022-12-06T21:24:16.588Z,11.77
2022-12-06T21:26:44.640Z,11.77
2022-12-06T21:29:15.671Z,11.87
2022-12-06T21:31:43.631Z,12.77
2022-12-06T21:34:11.900Z,15.03
2022-12-06T21:36:39.766Z,13.07
2022-12-06T21:39:07.907Z,14.50
2022-12-06T21:41:37.155Z,11.63
2022-12-06T21:44:04.989Z,11.13
2022-12-06T21:46:32.874Z,13.10
2022-12-06T21:49:02.110Z,8.47
2022-12-06T21:51:32.225Z,11.60
2022-12-06T21:54:01.351Z,12.50
2022-12-06T21:56:31.299Z,12.57
2022-12-06T21:59:01.305Z,13.83
2022-12-06T22:01:31.211Z,9.70
2022-12-06T22:04:01.402Z,10.33
2022-12-06T22:06:29.696Z,10.50
2022-12-06T22:08:59.072Z,11.53
2022-12-06T22:11:27.233Z,11.83
2022-12-06T22:13:55.298Z,12.33
2022-12-06T22:16:24.550Z,10.90
2022-12-06T22:18:54.860Z,10.00
2022-12-06T22:21:25.570Z,10.30
2022-12-06T22:23:54.077Z,11.63
2022-12-06T22:26:24.043Z,10.23
2022-12-06T22:28:52.086Z,11.13
2022-12-06T22:31:21.599Z,8.53
2022-12-06T22:33:51.812Z,11.07
2022-12-06T22:36:20.422Z,12.30
2022-12-06T22:38:50.670Z,10.80
2022-12-06T22:41:19.061Z,8.40
2022-12-06T22:43:47.667Z,8.40
2022-12-06T22:46:16.861Z,10.00
2022-12-06T22:48:45.594Z,12.40
2022-12-06T22:51:16.809Z,8.50
2022-12-06T22:53:47.606Z,10.20
2022-12-06T22:56:16.429Z,9.37
2022-12-06T23:01:21.922Z,10.23
2022-12-06T23:03:51.232Z,8.93
2022-12-06T23:06:22.711Z,12.30
2022-12-06T23:08:50.979Z,9.63
2022-12-06T23:11:21.591Z,9.20
2022-12-06T23:13:49.702Z,10.80
2022-12-06T23:16:19.248Z,8.73
2022-12-06T23:18:50.450Z,11.37
2022-12-06T23:21:21.436Z,9.23
2022-12-06T23:23:51.510Z,8.40
2022-12-06T23:26:21.315Z,8.60
2022-12-06T23:28:49.378Z,7.57
2022-12-06T23:31:19.284Z,10.20
2022-12-06T23:33:47.700Z,10.90
2022-12-06T23:36:17.862Z,10.70
2022-12-06T23:38:47.421Z,8.33
2022-12-06T23:41:17.368Z,8.93
2022-12-06T23:43:45.269Z,10.90
2022-12-06T23:46:17.799Z,11.43
2022-12-06T23:48:50.037Z,10.80
2022-12-06T23:51:20.027Z,9.70
2022-12-06T23:53:52.389Z,11.53
2022-12-06T23:56:22.338Z,12.60
2022-12-06T23:58:51.217Z,10.43
